Time;durP1;ratioP1;P1;durP2;ratioP2;P2;SDS_P1;SDS_P2;PMS_P1;PMS_P2;Temp;Humidity;BMP_temperature;BMP_pressure;BME280_temperature;BME280_humidity;BME280_pressure;Samples;Min_cycle;Max_cycle;Signal;HPM_P1;HPM_P2
2021/08/27 00:01:46;;;;;;;1.25;1.13;;;14.60;99.90;;;;;;5042771;28;20047;-75
2021/08/27 00:04:11;;;;;;;;;;;14.40;99.90;;;;;;5048764;28;20032;-75
2021/08/27 00:06:37;;;;;;;1.73;1.00;;;14.30;99.90;;;;;;5078666;28;19921;-76
2021/08/27 00:09:03;;;;;;;2.17;1.25;;;14.30;99.90;;;;;;5040626;28;20443;-76
2021/08/27 00:11:29;;;;;;;;;;;14.20;99.90;;;;;;5040930;28;20056;-76
2021/08/27 00:13:54;;;;;;;1.45;0.90;;;14.20;99.90;;;;;;5079163;28;19929;-76
2021/08/27 00:16:20;;;;;;;0.77;0.77;;;14.20;99.90;;;;;;5040004;28;20111;-76
2021/08/27 00:18:46;;;;;;;;;;;14.10;99.90;;;;;;5045118;28;20040;-77
2021/08/27 00:21:11;;;;;;;2.08;1.42;;;14.10;99.90;;;;;;5050718;28;19923;-75
2021/08/27 00:23:37;;;;;;;3.63;1.15;;;14.10;99.90;;;;;;5062989;28;20439;-75
2021/08/27 00:26:03;;;;;;;8.93;1.55;;;14.00;99.90;;;;;;5060301;28;20115;-76
2021/08/27 00:28:29;;;;;;;4.40;1.05;;;14.00;99.90;;;;;;5054980;28;20370;-76
2021/08/27 00:30:57;;;;;;;1.92;1.02;;;14.10;99.90;;;;;;5043455;28;20144;-75
2021/08/27 00:33:26;;;;;;;8.13;1.02;;;14.10;99.90;;;;;;5061636;28;20525;-76
2021/08/27 00:35:52;;;;;;;7.55;1.55;;;14.20;99.90;;;;;;5046186;28;20098;-77
2021/08/27 00:38:18;;;;;;;1.25;0.70;;;14.30;99.90;;;;;;5044021;28;20056;-77
2021/08/27 00:40:44;;;;;;;;;;;14.50;99.90;;;;;;5052553;28;20040;-76
2021/08/27 00:43:13;;;;;;;0.95;0.80;;;14.60;99.90;;;;;;5039703;28;19917;-75
2021/08/27 00:45:44;;;;;;;3.50;0.95;;;14.70;99.90;;;;;;5039280;28;20053;-76
2021/08/27 00:48:10;;;;;;;0.60;0.60;;;14.70;99.90;;;;;;5082106;28;20040;-76
2021/08/27 00:50:37;;;;;;;0.77;0.77;;;14.80;99.90;;;;;;5050181;28;20044;-76
2021/08/27 00:53:04;;;;;;;3.42;0.90;;;14.90;99.90;;;;;;5062438;28;20049;-74
2021/08/27 00:55:30;;;;;;;0.95;0.63;;;14.90;99.90;;;;;;5050583;28;20055;-76
2021/08/27 00:57:56;;;;;;;1.65;1.00;;;14.80;99.90;;;;;;5052719;28;20501;-75
2021/08/27 01:00:23;;;;;;;0.70;0.70;;;14.80;99.90;;;;;;5062715;28;20393;-74
2021/08/27 01:02:49;;;;;;;1.25;0.77;;;14.80;99.90;;;;;;5027730;28;20383;-75
2021/08/27 01:05:16;;;;;;;0.85;0.65;;;14.80;99.90;;;;;;5056959;28;20045;-76
2021/08/27 01:07:52;;;;;;;2.53;1.35;;;14.80;99.90;;;;;;5031252;28;20111;-76
2021/08/27 01:10:32;;;;;;;1.63;0.77;;;14.80;99.90;;;;;;5043153;28;20452;-76
2021/08/27 01:13:32;;;;;;;2.72;1.23;;;14.80;99.90;;;;;;5054311;28;20127;-76
2021/08/27 01:16:23;;;;;;;2.30;0.93;;;14.90;99.90;;;;;;5048892;28;20048;-76
2021/08/27 01:19:08;;;;;;;4.38;1.23;;;14.90;99.90;;;;;;5048706;28;20041;-76
2021/08/27 01:21:48;;;;;;;1.60;1.40;;;15.00;99.90;;;;;;5044674;28;20063;-76
2021/08/27 01:24:17;;;;;;;4.25;0.80;;;15.00;99.90;;;;;;5039883;28;20048;-75
2021/08/27 01:26:49;;;;;;;3.88;1.23;;;15.10;99.90;;;;;;5063287;28;20489;-76
2021/08/27 01:29:27;;;;;;;0.80;0.80;;;15.20;99.90;;;;;;5048095;28;20041;-77
2021/08/27 01:32:01;;;;;;;1.67;0.98;;;15.20;99.90;;;;;;5039491;28;20552;-77
2021/08/27 01:34:39;;;;;;;1.08;0.82;;;15.20;99.90;;;;;;5067892;28;20136;-76
2021/08/27 01:37:13;;;;;;;0.50;0.50;;;15.20;99.90;;;;;;5061009;28;20037;-76
2021/08/27 01:39:44;;;;;;;0.65;0.65;;;15.20;99.90;;;;;;5056243;28;20083;-78
2021/08/27 01:42:11;;;;;;;1.45;1.35;;;15.20;99.90;;;;;;5048095;28;20129;-78
2021/08/27 01:44:39;;;;;;;0.77;0.70;;;15.00;99.90;;;;;;5077322;28;20056;-77
2021/08/27 01:47:07;;;;;;;0.47;0.40;;;14.90;99.90;;;;;;5039230;28;20513;-76
2021/08/27 01:49:33;;;;;;;1.25;0.63;;;14.80;99.90;;;;;;5056466;28;20494;-77
2021/08/27 01:52:03;;;;;;;0.40;0.40;;;14.80;99.90;;;;;;5045566;28;20043;-76
2021/08/27 01:54:30;;;;;;;4.28;1.05;;;14.80;99.90;;;;;;5050224;28;20375;-77
2021/08/27 01:56:57;;;;;;;1.80;0.80;;;14.80;99.90;;;;;;5074157;28;20037;-76
2021/08/27 01:59:26;;;;;;;1.23;0.93;;;14.90;99.90;;;;;;5039676;28;20136;-78
2021/08/27 02:01:53;;;;;;;4.60;1.60;;;14.90;99.90;;;;;;5037626;28;20048;-76
2021/08/27 02:04:19;;;;;;;0.73;0.70;;;14.90;99.90;;;;;;5015650;28;20041;-77
2021/08/27 02:06:47;;;;;;;6.00;0.80;;;15.00;99.90;;;;;;5053810;28;20044;-77
2021/08/27 02:09:14;;;;;;;9.23;1.95;;;15.00;99.90;;;;;;5043920;28;20049;-77
2021/08/27 02:11:41;;;;;;;1.83;1.10;;;15.00;99.90;;;;;;5050430;28;20076;-76
2021/08/27 02:14:07;;;;;;;0.82;0.82;;;15.10;99.90;;;;;;5089410;28;20040;-75
2021/08/27 02:16:32;;;;;;;0.43;0.43;;;15.10;99.90;;;;;;5050252;28;20376;-78
2021/08/27 02:18:58;;;;;;;;;;;15.10;99.90;;;;;;5052389;28;20048;-77
2021/08/27 02:21:29;;;;;;;0.30;0.30;;;15.10;99.90;;;;;;5077877;28;19917;-75
2021/08/27 02:23:57;;;;;;;0.95;0.68;;;15.10;99.90;;;;;;5050901;28;20047;-77
2021/08/27 02:26:24;;;;;;;1.20;0.93;;;15.10;99.90;;;;;;5051177;28;20057;-77
2021/08/27 02:28:50;;;;;;;0.88;0.73;;;15.10;99.90;;;;;;5017371;28;20048;-80
2021/08/27 02:31:16;;;;;;;0.88;0.50;;;15.10;99.90;;;;;;5067792;28;20130;-77
2021/08/27 02:33:45;;;;;;;1.42;1.25;;;15.10;99.90;;;;;;5050832;28;20049;-78
2021/08/27 02:36:16;;;;;;;0.77;0.77;;;15.10;99.90;;;;;;5052054;28;20526;-77
2021/08/27 02:38:43;;;;;;;0.82;0.68;;;15.10;99.90;;;;;;5073316;28;20060;-78
2021/08/27 02:41:09;;;;;;;0.30;0.30;;;15.10;99.90;;;;;;5042557;28;20037;-76
2021/08/27 02:43:35;;;;;;;0.70;0.47;;;15.10;99.90;;;;;;5058154;28;20043;-78
2021/08/27 02:46:00;;;;;;;0.93;0.65;;;14.80;99.90;;;;;;5045769;28;20045;-75
2021/08/27 02:48:26;;;;;;;4.38;0.88;;;15.00;99.90;;;;;;5054124;28;20070;-77
2021/08/27 02:51:01;;;;;;;2.38;1.15;;;14.90;99.90;;;;;;5053534;28;20475;-76
2021/08/27 02:53:31;;;;;;;0.60;0.60;;;14.90;99.90;;;;;;5045782;28;20045;-77
2021/08/27 02:56:05;;;;;;;0.50;0.45;;;14.80;99.90;;;;;;5071414;28;20479;-76
2021/08/27 02:58:33;;;;;;;2.25;1.30;;;14.80;99.90;;;;;;5062642;28;20444;-77
2021/08/27 03:01:17;;;;;;;0.75;0.73;;;14.70;99.90;;;;;;5105805;28;20048;-76
2021/08/27 03:03:54;;;;;;;2.78;1.23;;;14.70;99.90;;;;;;5049178;28;20076;-76
2021/08/27 03:06:28;;;;;;;1.15;0.50;;;14.70;99.90;;;;;;5070061;28;20080;-78
2021/08/27 03:09:04;;;;;;;1.13;0.73;;;14.70;99.90;;;;;;5048559;28;20433;-75
2021/08/27 03:11:35;;;;;;;4.93;1.33;;;14.70;99.90;;;;;;5043378;28;20036;-76
2021/08/27 03:14:11;;;;;;;0.80;0.80;;;14.70;99.90;;;;;;5060446;28;20102;-76
2021/08/27 03:16:41;;;;;;;0.50;0.50;;;14.80;99.90;;;;;;5027830;28;20036;-76
2021/08/27 03:19:18;;;;;;;1.63;0.80;;;14.70;99.90;;;;;;5047208;28;20559;-76
2021/08/27 03:22:21;;;;;;;1.85;1.00;;;14.70;99.90;;;;;;5052272;28;20116;-76
2021/08/27 03:24:59;;;;;;;2.83;1.27;;;14.70;99.90;;;;;;5046147;28;20106;-76
2021/08/27 03:27:30;;;;;;;1.10;0.98;;;14.60;99.90;;;;;;5043069;28;20048;-76
2021/08/27 03:30:01;;;;;;;2.67;1.05;;;14.50;99.90;;;;;;5034203;28;20395;-76
2021/08/27 03:32:28;;;;;;;1.20;0.85;;;14.50;99.90;;;;;;5071009;28;20049;-77
2021/08/27 03:34:55;;;;;;;3.47;1.60;;;14.40;99.90;;;;;;5057746;28;20084;-76
2021/08/27 03:37:22;;;;;;;2.20;0.98;;;14.40;99.90;;;;;;5046203;28;20497;-77
2021/08/27 03:39:49;;;;;;;1.27;0.90;;;14.40;99.90;;;;;;5064567;28;20045;-77
2021/08/27 03:42:17;;;;;;;1.42;1.08;;;14.30;99.90;;;;;;5050745;28;20052;-77
2021/08/27 03:44:44;;;;;;;1.38;0.90;;;14.30;99.90;;;;;;5046236;28;20076;-77
2021/08/27 03:47:13;;;;;;;2.17;0.85;;;14.30;99.90;;;;;;5022953;28;20541;-76
2021/08/27 03:49:39;;;;;;;2.35;1.48;;;14.30;99.90;;;;;;5062741;28;20049;-75
2021/08/27 03:52:06;;;;;;;1.83;1.20;;;14.30;99.90;;;;;;5054364;28;20392;-79
2021/08/27 03:54:33;;;;;;;4.00;0.85;;;14.40;99.90;;;;;;5047478;28;20116;-75
2021/08/27 03:57:03;;;;;;;5.82;1.05;;;14.50;99.90;;;;;;5042323;28;20080;-76
2021/08/27 03:59:30;;;;;;;3.17;1.02;;;14.60;99.90;;;;;;5067479;28;20041;-75
2021/08/27 04:01:57;;;;;;;1.83;1.10;;;14.60;99.90;;;;;;5051823;28;20367;-77
2021/08/27 04:04:23;;;;;;;1.33;1.10;;;14.60;99.90;;;;;;5037540;28;20102;-76
2021/08/27 04:06:58;;;;;;;0.80;0.75;;;14.50;99.90;;;;;;5034110;28;20490;-77
2021/08/27 04:09:29;;;;;;;1.40;0.82;;;14.50;99.90;;;;;;5044713;28;20085;-77
2021/08/27 04:11:55;;;;;;;0.60;0.60;;;14.50;99.90;;;;;;5051363;28;20044;-77
2021/08/27 04:14:21;;;;;;;1.40;0.70;;;14.50;99.90;;;;;;5058172;28;20485;-77
2021/08/27 04:16:48;;;;;;;2.20;0.98;;;14.50;99.90;;;;;;5056294;28;20037;-77
2021/08/27 04:19:14;;;;;;;1.88;0.98;;;14.40;99.90;;;;;;5053358;28;20040;-77
2021/08/27 04:21:41;;;;;;;3.10;1.00;;;14.30;99.90;;;;;;5040164;28;20056;-78
2021/08/27 04:24:07;;;;;;;3.55;0.88;;;14.20;99.90;;;;;;5071892;28;20044;-77
2021/08/27 04:26:34;;;;;;;;;;;14.10;99.90;;;;;;5036692;28;20044;-78
2021/08/27 04:29:00;;;;;;;12.60;2.40;;;14.10;99.90;;;;;;5057961;28;19932;-76
2021/08/27 04:31:26;;;;;;;1.08;0.77;;;14.20;99.90;;;;;;5046854;28;20052;-80
2021/08/27 04:33:52;;;;;;;0.68;0.60;;;14.10;99.90;;;;;;5060937;28;20059;-78
2021/08/27 04:36:18;;;;;;;1.35;0.65;;;14.20;99.90;;;;;;5051113;28;20136;-78
2021/08/27 04:38:44;;;;;;;0.43;0.43;;;14.20;99.90;;;;;;5062154;28;20049;-77
2021/08/27 04:41:09;;;;;;;1.63;1.02;;;14.20;99.90;;;;;;5034571;28;20033;-76
2021/08/27 04:43:35;;;;;;;0.73;0.73;;;14.30;99.90;;;;;;5070786;28;20051;-79
2021/08/27 04:46:01;;;;;;;;;;;14.20;99.90;;;;;;5048635;28;20131;-76
2021/08/27 04:48:26;;;;;;;1.88;1.00;;;14.30;99.90;;;;;;5061379;28;20340;-78
2021/08/27 04:50:52;;;;;;;6.03;1.27;;;14.30;99.90;;;;;;5033811;28;20048;-75
2021/08/27 04:53:18;;;;;;;1.17;0.50;;;14.30;99.90;;;;;;5043589;28;20053;-77
2021/08/27 04:55:43;;;;;;;4.70;1.23;;;14.30;99.90;;;;;;5049168;28;20041;-75
2021/08/27 04:58:09;;;;;;;0.77;0.57;;;14.30;99.90;;;;;;5069108;28;20100;-77
2021/08/27 05:00:36;;;;;;;0.60;0.60;;;14.30;99.90;;;;;;5054998;28;20037;-78
2021/08/27 05:03:01;;;;;;;1.10;0.75;;;14.30;99.90;;;;;;5036412;28;20490;-77
2021/08/27 05:05:27;;;;;;;0.75;0.57;;;14.30;99.90;;;;;;5042834;28;20056;-77
2021/08/27 05:07:53;;;;;;;0.77;0.73;;;14.30;99.90;;;;;;5030753;28;20056;-75
2021/08/27 05:10:19;;;;;;;0.50;0.50;;;14.30;99.90;;;;;;5024414;28;20048;-76
2021/08/27 05:12:44;;;;;;;2.13;1.40;;;14.30;99.90;;;;;;5035625;28;20064;-79
2021/08/27 05:15:10;;;;;;;;;;;14.30;99.90;;;;;;5048304;28;20045;-77
2021/08/27 05:17:37;;;;;;;0.47;0.47;;;14.30;99.90;;;;;;5086657;28;20422;-79
2021/08/27 05:20:04;;;;;;;0.95;0.55;;;14.40;99.90;;;;;;5057331;28;20370;-77
2021/08/27 05:22:29;;;;;;;1.65;1.35;;;14.50;99.90;;;;;;5052193;28;20490;-75
2021/08/27 05:24:55;;;;;;;3.08;1.30;;;14.60;99.90;;;;;;5058778;28;20051;-74
2021/08/27 05:27:21;;;;;;;0.65;0.65;;;14.70;99.90;;;;;;5069689;28;20040;-76
2021/08/27 05:29:46;;;;;;;1.75;1.05;;;14.80;99.90;;;;;;5060640;28;20039;-76
2021/08/27 05:32:12;;;;;;;;;;;14.80;99.90;;;;;;5055047;28;20045;-76
2021/08/27 05:34:38;;;;;;;1.20;0.63;;;14.90;99.90;;;;;;5061120;28;19931;-76
2021/08/27 05:37:04;;;;;;;0.63;0.63;;;14.90;99.90;;;;;;5059904;28;20048;-76
2021/08/27 05:39:29;;;;;;;;;;;15.00;99.90;;;;;;5046306;28;20040;-78
2021/08/27 05:41:57;;;;;;;0.65;0.65;;;15.10;99.90;;;;;;5054253;28;19995;-76
2021/08/27 05:44:22;;;;;;;1.65;0.60;;;15.10;99.90;;;;;;5060742;28;20051;-77
2021/08/27 05:46:49;;;;;;;4.47;0.50;;;15.10;99.90;;;;;;5062672;28;20044;-75
2021/08/27 05:49:16;;;;;;;0.52;0.50;;;15.10;99.90;;;;;;5057723;28;20044;-77
2021/08/27 05:51:41;;;;;;;2.15;1.00;;;15.10;99.90;;;;;;5046424;28;20403;-76
2021/08/27 05:54:08;;;;;;;0.38;0.38;;;15.20;99.90;;;;;;5081567;28;20055;-77
2021/08/27 05:56:34;;;;;;;3.53;1.45;;;15.20;99.90;;;;;;5053586;28;20497;-76
2021/08/27 05:59:00;;;;;;;1.50;1.08;;;15.30;99.90;;;;;;5050768;28;20037;-76
2021/08/27 06:01:26;;;;;;;1.83;1.15;;;15.20;99.90;;;;;;5073612;28;20045;-77
2021/08/27 06:03:51;;;;;;;;;;;15.30;99.90;;;;;;5057166;28;20036;-78
2021/08/27 06:06:17;;;;;;;1.33;0.80;;;15.30;99.90;;;;;;5041340;28;19970;-75
2021/08/27 06:08:43;;;;;;;;;;;15.40;99.90;;;;;;5047172;28;20557;-78
2021/08/27 06:11:08;;;;;;;7.30;1.73;;;15.40;99.90;;;;;;5075111;28;19921;-76
2021/08/27 06:13:34;;;;;;;;;;;15.50;99.90;;;;;;5061163;28;20043;-76
2021/08/27 06:16:00;;;;;;;4.45;0.73;;;15.50;99.90;;;;;;5066206;28;20780;-76
2021/08/27 06:18:25;;;;;;;2.15;0.95;;;15.60;99.90;;;;;;5046609;28;20495;-77
2021/08/27 06:20:51;;;;;;;;;;;15.60;99.90;;;;;;5053304;28;20043;-77
2021/08/27 06:23:18;;;;;;;0.75;0.40;;;15.50;99.90;;;;;;5079699;28;20333;-78
2021/08/27 06:25:44;;;;;;;1.17;0.95;;;15.50;99.90;;;;;;5053294;28;20052;-77
2021/08/27 06:28:10;;;;;;;0.40;0.40;;;15.60;99.90;;;;;;5039999;28;20037;-77
2021/08/27 06:30:36;;;;;;;2.33;0.60;;;15.70;99.90;;;;;;5052890;28;20044;-75
2021/08/27 06:33:02;;;;;;;0.55;0.45;;;15.70;99.90;;;;;;5058105;28;20112;-77
2021/08/27 06:35:30;;;;;;;0.98;0.80;;;15.70;99.90;;;;;;5058337;28;20056;-78
2021/08/27 06:40:42;;;;;;;1.10;0.65;;;15.70;99.90;;;;;;5046555;28;20091;-77
2021/08/27 06:43:07;;;;;;;0.40;0.40;;;15.70;99.90;;;;;;5062350;28;20040;-77
2021/08/27 06:45:33;;;;;;;0.75;0.40;;;15.60;99.90;;;;;;5055477;28;20043;-78
2021/08/27 06:47:59;;;;;;;;;;;15.60;99.90;;;;;;5071488;28;20127;-77
2021/08/27 06:50:25;;;;;;;6.75;1.15;;;15.50;99.90;;;;;;5069110;28;19916;-77
2021/08/27 06:52:51;;;;;;;;;;;15.60;99.90;;;;;;5055104;28;20041;-79
2021/08/27 06:55:17;;;;;;;0.60;0.60;;;15.70;99.90;;;;;;5067096;28;19925;-77
2021/08/27 06:57:42;;;;;;;;;;;15.70;99.90;;;;;;5038450;28;20048;-79
2021/08/27 07:00:09;;;;;;;0.63;0.63;;;15.80;99.90;;;;;;5082490;28;19924;-76
2021/08/27 07:02:35;;;;;;;3.92;0.60;;;15.80;99.90;;;;;;5083722;28;20033;-79
2021/08/27 07:05:00;;;;;;;0.95;0.65;;;15.90;99.90;;;;;;5045241;28;20431;-79
2021/08/27 07:07:26;;;;;;;0.50;0.50;;;16.00;99.90;;;;;;5037150;28;20051;-77
2021/08/27 07:09:52;;;;;;;;;;;16.00;99.90;;;;;;5060651;28;20397;-79
2021/08/27 07:12:17;;;;;;;1.75;0.95;;;16.10;99.90;;;;;;5057756;28;19920;-76
2021/08/27 07:14:44;;;;;;;;;;;16.00;99.90;;;;;;5061452;28;20045;-78
2021/08/27 07:17:10;;;;;;;0.85;0.60;;;15.80;99.90;;;;;;5052754;28;19924;-79
2021/08/27 07:19:36;;;;;;;0.47;0.47;;;15.50;99.90;;;;;;5058544;28;20045;-79
2021/08/27 07:22:01;;;;;;;0.50;0.50;;;15.30;99.90;;;;;;5062589;28;20063;-77
2021/08/27 07:24:27;;;;;;;;;;;15.10;99.90;;;;;;5064335;28;20045;-77
2021/08/27 07:26:53;;;;;;;4.97;0.75;;;15.10;99.90;;;;;;5086265;28;19923;-78
2021/08/27 07:29:18;;;;;;;0.70;0.70;;;15.10;99.90;;;;;;5049884;28;20072;-78
2021/08/27 07:31:44;;;;;;;5.03;1.08;;;15.20;99.90;;;;;;5052264;28;20044;-77
2021/08/27 07:34:10;;;;;;;1.38;0.57;;;15.40;99.90;;;;;;5057330;28;20139;-79
2021/08/27 07:36:35;;;;;;;2.53;1.35;;;15.60;99.90;;;;;;5055183;28;20056;-78
2021/08/27 07:39:01;;;;;;;;;;;15.80;99.90;;;;;;5054660;28;20150;-76
2021/08/27 07:41:26;;;;;;;1.75;0.65;;;16.00;99.90;;;;;;5052040;28;20355;-77
2021/08/27 07:43:52;;;;;;;0.50;0.50;;;16.20;99.90;;;;;;5042357;28;20064;-79
2021/08/27 07:46:18;;;;;;;5.13;1.33;;;16.40;99.90;;;;;;5056275;28;20048;-78
2021/08/27 07:48:43;;;;;;;;;;;16.70;99.90;;;;;;5053213;28;20589;-79
2021/08/27 07:51:09;;;;;;;2.40;1.33;;;16.90;99.90;;;;;;5072080;28;19916;-79
2021/08/27 07:53:35;;;;;;;0.88;0.68;;;17.00;99.90;;;;;;5046218;28;20040;-80
2021/08/27 07:56:00;;;;;;;6.38;1.40;;;17.00;99.90;;;;;;5059199;28;20046;-78
2021/08/27 07:58:26;;;;;;;2.22;1.35;;;17.00;99.90;;;;;;5051850;28;20547;-80
2021/08/27 08:00:52;;;;;;;;;;;17.00;99.90;;;;;;5048435;28;20045;-78
2021/08/27 08:03:17;;;;;;;0.70;0.70;;;17.00;99.90;;;;;;5069850;28;20405;-79
2021/08/27 08:05:43;;;;;;;4.72;0.85;;;16.90;99.90;;;;;;5052706;28;20076;-77
2021/08/27 08:08:09;;;;;;;;;;;17.10;99.90;;;;;;5062209;28;20398;-76
2021/08/27 08:10:35;;;;;;;0.93;0.60;;;17.20;99.90;;;;;;5051069;28;19916;-79
2021/08/27 08:13:00;;;;;;;;;;;17.30;99.90;;;;;;5044765;28;20707;-79
2021/08/27 08:15:28;;;;;;;2.28;1.08;;;17.40;99.90;;;;;;5030859;28;20294;-78
2021/08/27 08:17:54;;;;;;;3.00;1.33;;;17.60;99.90;;;;;;5041288;28;20495;-79
2021/08/27 08:20:20;;;;;;;0.68;0.50;;;17.80;99.90;;;;;;5036551;28;20048;-78
2021/08/27 08:22:46;;;;;;;;;;;17.90;99.90;;;;;;5056578;28;20056;-77
2021/08/27 08:25:11;;;;;;;1.98;0.75;;;18.10;99.90;;;;;;5058135;28;20359;-75
2021/08/27 08:27:37;;;;;;;;;;;18.30;99.90;;;;;;5033914;28;20076;-76
2021/08/27 08:30:04;;;;;;;0.88;0.73;;;18.20;99.90;;;;;;5061551;28;20019;-82
2021/08/27 08:32:33;;;;;;;1.75;1.40;;;18.20;99.90;;;;;;5049761;28;20494;-78
2021/08/27 08:34:59;;;;;;;1.65;0.95;;;18.30;99.90;;;;;;5055121;28;20114;-79
2021/08/27 08:37:25;;;;;;;1.63;0.90;;;18.10;99.90;;;;;;5048163;28;20391;-76
2021/08/27 08:39:51;;;;;;;1.30;1.20;;;17.80;99.90;;;;;;5055001;28;20051;-79
2021/08/27 08:42:16;;;;;;;;;;;17.60;99.90;;;;;;5059858;28;20132;-79
2021/08/27 08:44:42;;;;;;;0.82;0.65;;;17.40;99.90;;;;;;5031943;28;19920;-78
2021/08/27 08:47:10;;;;;;;;;;;17.30;99.90;;;;;;5046725;28;20048;-78
2021/08/27 08:49:37;;;;;;;0.63;0.63;;;17.30;99.90;;;;;;5079774;28;19924;-79
2021/08/27 08:52:05;;;;;;;4.07;1.25;;;17.40;99.90;;;;;;5036744;28;20212;-78
2021/08/27 08:54:31;;;;;;;0.50;0.50;;;17.60;99.90;;;;;;5045840;28;20632;-79
2021/08/27 08:56:57;;;;;;;;;;;17.80;99.90;;;;;;5079480;28;20045;-78
2021/08/27 08:59:24;;;;;;;0.88;0.82;;;17.90;99.90;;;;;;5031990;28;19932;-78
2021/08/27 09:01:50;;;;;;;2.97;0.85;;;17.90;99.90;;;;;;5043627;28;20051;-79
2021/08/27 09:04:15;;;;;;;1.13;0.55;;;17.80;99.90;;;;;;5057804;28;20409;-79
2021/08/27 09:06:41;;;;;;;4.78;0.75;;;17.80;99.90;;;;;;5045702;28;20091;-83
2021/08/27 09:09:07;;;;;;;;;;;17.90;99.90;;;;;;5082070;28;20132;-80
2021/08/27 09:11:33;;;;;;;1.00;0.65;;;18.10;99.90;;;;;;5058047;28;19924;-79
2021/08/27 09:14:03;;;;;;;;;;;18.50;99.90;;;;;;5053707;28;20044;-82
2021/08/27 09:16:32;;;;;;;0.95;0.73;;;18.70;99.90;;;;;;5047131;28;19916;-80
2021/08/27 09:18:58;;;;;;;1.80;1.48;;;18.90;99.90;;;;;;5034522;28;20477;-78
2021/08/27 09:21:36;;;;;;;1.58;0.85;;;18.80;99.90;;;;;;5050105;28;20678;-78
2021/08/27 09:24:20;;;;;;;0.50;0.50;;;18.70;99.90;;;;;;5053397;28;20191;-79
2021/08/27 09:26:55;;;;;;;1.40;0.93;;;18.70;99.90;;;;;;5060554;28;20087;-73
2021/08/27 09:29:39;;;;;;;3.13;1.20;;;18.80;99.90;;;;;;5028416;28;20378;-78
2021/08/27 09:32:17;;;;;;;2.63;1.02;;;19.10;99.90;;;;;;5046644;28;20048;-78
2021/08/27 09:34:43;;;;;;;1.05;0.95;;;19.10;99.90;;;;;;5056508;28;20821;-76
2021/08/27 09:37:09;;;;;;;0.93;0.68;;;19.10;99.90;;;;;;5050802;28;20370;-79
2021/08/27 09:39:35;;;;;;;;;;;18.90;99.90;;;;;;5035767;28;20041;-83
2021/08/27 09:42:02;;;;;;;2.47;0.98;;;18.80;99.90;;;;;;5050502;28;20306;-78
2021/08/27 09:44:28;;;;;;;1.55;1.13;;;18.60;99.90;;;;;;5049841;28;20055;-78
2021/08/27 09:46:54;;;;;;;0.80;0.73;;;18.60;99.90;;;;;;5032200;28;20045;-79
2021/08/27 09:49:24;;;;;;;;;;;18.60;99.90;;;;;;5067611;28;20044;-76
2021/08/27 09:51:50;;;;;;;0.93;0.70;;;18.70;99.90;;;;;;5053539;28;19925;-77
2021/08/27 09:54:28;;;;;;;;;;;18.70;99.90;;;;;;5053116;28;20040;-82
2021/08/27 09:56:56;;;;;;;1.48;1.08;;;18.70;99.90;;;;;;5080914;28;20231;-80
2021/08/27 09:59:46;;;;;;;0.63;0.63;;;18.70;99.90;;;;;;5051227;28;20505;-78
2021/08/27 10:02:17;;;;;;;0.60;0.60;;;18.90;99.90;;;;;;5045567;28;20045;-78
2021/08/27 10:04:50;;;;;;;5.18;1.48;;;19.00;99.90;;;;;;5051396;28;20041;-79
2021/08/27 10:07:34;;;;;;;0.80;0.80;;;19.10;99.90;;;;;;5049247;28;20090;-78
2021/08/27 10:10:06;;;;;;;2.53;0.90;;;19.20;99.90;;;;;;5057864;28;20071;-78
2021/08/27 10:12:35;;;;;;;1.50;0.85;;;19.00;99.90;;;;;;5053901;28;20469;-75
2021/08/27 10:15:03;;;;;;;0.80;0.60;;;18.60;99.90;;;;;;5054024;28;20175;-76
2021/08/27 10:17:28;;;;;;;0.73;0.57;;;18.20;99.90;;;;;;5046920;28;20410;-79
2021/08/27 10:19:54;;;;;;;;;;;18.00;99.90;;;;;;5054881;28;20079;-77
2021/08/27 10:22:21;;;;;;;1.27;0.93;;;18.10;99.90;;;;;;5049924;28;20642;-78
2021/08/27 10:24:47;;;;;;;0.65;0.65;;;18.30;99.90;;;;;;5055073;28;20048;-79
2021/08/27 10:27:14;;;;;;;0.43;0.43;;;18.40;99.90;;;;;;5055856;28;20041;-78
2021/08/27 10:29:52;;;;;;;0.45;0.45;;;18.40;99.90;;;;;;5044995;28;20436;-76
2021/08/27 10:32:39;;;;;;;0.40;0.40;;;18.60;99.90;;;;;;5053989;28;20051;-79
2021/08/27 10:35:06;;;;;;;0.82;0.65;;;18.80;99.90;;;;;;5049785;28;20049;-84
2021/08/27 10:37:43;;;;;;;0.82;0.82;;;19.00;99.90;;;;;;5049944;28;20078;-81
2021/08/27 10:40:25;;;;;;;0.98;0.77;;;19.10;99.90;;;;;;5040562;28;20052;-85
2021/08/27 10:43:01;;;;;;;4.47;0.52;;;19.10;99.90;;;;;;5037561;28;20036;-80
2021/08/27 10:45:33;;;;;;;0.50;0.50;;;19.10;99.90;;;;;;5049825;28;20048;-83
2021/08/27 10:48:19;;;;;;;1.13;0.68;;;19.30;99.90;;;;;;5063762;28;20045;-81
2021/08/27 10:50:47;;;;;;;1.40;0.87;;;19.30;99.90;;;;;;5051929;28;20052;-78
2021/08/27 10:53:33;;;;;;;0.60;0.60;;;19.30;99.90;;;;;;5035957;28;20044;-79
2021/08/27 10:56:03;;;;;;;0.63;0.63;;;19.20;99.90;;;;;;5033437;28;20052;-76
2021/08/27 10:58:47;;;;;;;3.30;0.63;;;19.00;99.90;;;;;;5051749;28;20068;-79
2021/08/27 11:01:28;;;;;;;1.30;0.70;;;18.80;99.90;;;;;;5083502;28;20071;-81
2021/08/27 11:04:02;;;;;;;1.10;0.68;;;18.80;99.90;;;;;;5053733;28;20075;-80
2021/08/27 11:06:28;;;;;;;5.00;1.00;;;18.90;99.90;;;;;;5063602;28;20043;-80
2021/08/27 11:09:12;;;;;;;0.80;0.60;;;19.00;99.90;;;;;;5056092;28;20081;-79
2021/08/27 11:11:37;;;;;;;3.53;0.60;;;19.10;99.90;;;;;;5043709;28;20103;-82
2021/08/27 11:14:22;;;;;;;1.00;0.57;;;19.10;99.90;;;;;;5054471;28;20033;-81
2021/08/27 11:16:59;;;;;;;0.65;0.60;;;19.10;99.90;;;;;;5036261;28;20505;-80
2021/08/27 11:19:28;;;;;;;1.67;1.00;;;19.00;99.90;;;;;;5051336;28;20040;-78
2021/08/27 11:22:35;;;;;;;0.45;0.30;;;19.10;99.90;;;;;;5030803;28;20116;-78
2021/08/27 11:25:04;;;;;;;0.68;0.68;;;19.20;99.90;;;;;;5050990;28;20097;-79
2021/08/27 11:27:38;;;;;;;3.40;0.90;;;19.60;99.90;;;;;;5052198;28;20053;-78
2021/08/27 11:30:28;;;;;;;5.45;0.75;;;19.60;99.90;;;;;;5055268;28;20043;-77
2021/08/27 11:32:55;;;;;;;1.45;0.70;;;19.50;99.90;;;;;;5040006;28;20126;-77
2021/08/27 11:35:22;;;;;;;2.80;0.68;;;19.30;99.90;;;;;;5082750;28;20045;-76
2021/08/27 11:37:55;;;;;;;2.00;0.82;;;19.20;99.90;;;;;;5047896;28;20057;-78
2021/08/27 11:40:23;;;;;;;0.68;0.68;;;19.30;99.90;;;;;;5053443;28;20048;-76
2021/08/27 11:42:53;;;;;;;2.72;0.88;;;19.40;99.90;;;;;;5031803;28;20049;-80
2021/08/27 11:45:21;;;;;;;1.23;0.68;;;19.50;99.90;;;;;;5044065;28;20101;-78
2021/08/27 11:47:55;;;;;;;5.97;0.88;;;19.50;99.90;;;;;;5049732;28;20040;-79
2021/08/27 11:50:23;;;;;;;4.70;0.63;;;19.40;99.90;;;;;;5050125;28;20055;-77
2021/08/27 11:52:56;;;;;;;1.00;0.30;;;19.40;99.90;;;;;;5034997;28;20491;-79
2021/08/27 11:55:22;;;;;;;0.47;0.47;;;19.40;99.90;;;;;;5051766;28;20049;-80
2021/08/27 11:57:52;;;;;;;0.50;0.50;;;19.50;99.90;;;;;;5034199;28;20041;-77
2021/08/27 12:00:20;;;;;;;0.85;0.60;;;19.50;99.90;;;;;;5050315;28;20556;-79
2021/08/27 12:02:54;;;;;;;1.85;0.85;;;19.40;99.90;;;;;;5062939;28;20128;-80
2021/08/27 12:05:20;;;;;;;2.15;0.95;;;19.30;99.90;;;;;;5073166;28;20041;-78
2021/08/27 12:08:00;;;;;;;0.70;0.70;;;19.30;99.90;;;;;;5056762;28;20048;-79
2021/08/27 12:10:28;;;;;;;0.35;0.35;;;19.20;99.90;;;;;;5055204;28;20040;-78
2021/08/27 12:12:55;;;;;;;1.33;0.80;;;19.20;99.90;;;;;;5057375;28;20040;-79
2021/08/27 12:15:29;;;;;;;0.60;0.60;;;19.20;99.90;;;;;;5048214;28;20084;-78
2021/08/27 12:18:03;;;;;;;1.58;1.13;;;19.40;99.90;;;;;;5052093;28;20568;-79
2021/08/27 12:20:38;;;;;;;2.28;0.93;;;19.60;99.90;;;;;;5051921;28;20045;-78
2021/08/27 12:23:19;;;;;;;1.10;0.73;;;19.70;99.90;;;;;;5045586;28;20116;-77
2021/08/27 12:25:54;;;;;;;1.30;0.80;;;19.70;99.90;;;;;;5054654;28;20052;-78
2021/08/27 12:28:28;;;;;;;1.23;0.85;;;19.60;99.90;;;;;;5055434;28;20056;-76
2021/08/27 12:30:56;;;;;;;1.95;1.40;;;19.60;99.90;;;;;;5057031;28;20094;-77
2021/08/27 12:33:22;;;;;;;1.00;0.68;;;19.60;99.90;;;;;;5054837;28;20482;-78
2021/08/27 12:35:49;;;;;;;0.98;0.75;;;19.60;99.90;;;;;;5069087;28;20044;-79
2021/08/27 12:38:18;;;;;;;2.22;0.60;;;19.60;99.90;;;;;;5061544;28;20032;-77
2021/08/27 12:40:44;;;;;;;1.27;0.88;;;19.60;99.90;;;;;;5028257;28;20040;-77
2021/08/27 12:43:15;;;;;;;1.48;1.02;;;19.60;99.90;;;;;;5044170;28;20041;-78
2021/08/27 12:45:55;;;;;;;0.75;0.70;;;19.50;99.90;;;;;;5044179;28;20048;-77
2021/08/27 12:48:27;;;;;;;2.10;0.75;;;19.50;99.90;;;;;;5052862;28;20327;-77
2021/08/27 12:50:55;;;;;;;2.40;0.80;;;19.50;99.90;;;;;;5033669;28;20045;-76
2021/08/27 12:53:34;;;;;;;1.15;0.75;;;19.50;99.90;;;;;;5041454;28;20040;-79
2021/08/27 12:56:06;;;;;;;0.70;0.68;;;19.50;99.90;;;;;;5049935;28;20049;-79
2021/08/27 12:58:32;;;;;;;2.72;0.63;;;19.30;99.90;;;;;;5048896;28;20037;-80
2021/08/27 13:01:22;;;;;;;1.42;0.88;;;19.30;99.90;;;;;;5056105;28;20055;-79
2021/08/27 13:03:56;;;;;;;1.17;0.75;;;19.30;99.90;;;;;;5058280;28;20040;-81
2021/08/27 13:06:32;;;;;;;1.33;0.80;;;19.50;99.90;;;;;;5056064;28;20049;-80
2021/08/27 13:09:05;;;;;;;0.70;0.70;;;19.80;99.90;;;;;;5060843;28;20052;-79